Time,TemperatureF,DewpointF,PressureIn,WindDirection,WindDirectionDegrees,WindSpeedMPH,WindSpeedGustMPH,Humidity,HourlyPrecipIn,Conditions,Clouds,dailyrainin,SoftwareType,DateUTC
2013-01-15 00:02:00,68.0,66.0,29.90,SW,223,1.0,4.0,92,0.00,,,0.09,,2013-01-15 10:02:00,
2013-01-15 00:11:00,68.0,66.0,29.90,SW,223,1.0,4.0,92,0.00,,,0.09,,2013-01-15 10:11:00,
2013-01-15 00:22:00,68.0,66.0,29.90,SW,224,1.0,4.0,92,0.00,,,0.07,,2013-01-15 10:22:00,
2013-01-15 00:32:00,67.0,65.0,29.90,WSW,239,0.0,3.0,92,0.00,,,0.07,,2013-01-15 10:32:00,
2013-01-15 00:42:00,67.0,65.0,29.90,WSW,239,0.0,3.0,92,0.00,,,0.07,,2013-01-15 10:42:00,
2013-01-15 00:52:00,67.0,65.0,29.89,SW,226,1.0,3.0,92,0.00,,,0.07,,2013-01-15 10:52:00,
2013-01-15 01:02:00,66.0,64.0,29.89,SW,219,2.0,4.0,92,0.00,,,0.07,,2013-01-15 11:02:00,
2013-01-15 01:11:00,66.0,64.0,29.89,SW,219,2.0,4.0,92,0.00,,,0.07,,2013-01-15 11:11:00,
2013-01-15 01:22:00,66.0,64.0,29.89,SW,223,0.0,2.0,92,0.00,,,0.07,,2013-01-15 11:22:00,
2013-01-15 01:32:00,66.0,64.0,29.89,SW,224,2.0,4.0,93,0.00,,,0.07,,2013-01-15 11:32:00,
2013-01-15 01:42:00,66.0,64.0,29.89,SW,224,2.0,4.0,93,0.00,,,0.07,,2013-01-15 11:42:00,
2013-01-15 01:53:00,66.0,64.0,29.89,WSW,251,1.0,3.0,92,0.00,,,0.07,,2013-01-15 11:53:00,
2013-01-15 02:02:00,66.0,64.0,29.89,SW,227,2.0,4.0,92,0.00,,,0.07,,2013-01-15 12:02:00,
2013-01-15 02:12:00,66.0,64.0,29.89,SW,227,2.0,4.0,92,0.00,,,0.07,,2013-01-15 12:12:00,
2013-01-15 02:22:00,66.0,64.0,29.89,SW,231,2.0,4.0,92,0.00,,,0.01,,2013-01-15 12:22:00,
2013-01-15 02:32:00,65.0,63.0,29.89,SW,224,2.0,3.0,92,0.00,,,0.01,,2013-01-15 12:32:00,
2013-01-15 02:42:00,65.0,63.0,29.89,SW,224,2.0,3.0,92,0.00,,,0.01,,2013-01-15 12:42:00,
2013-01-15 02:53:00,65.0,63.0,29.88,SW,224,2.0,3.0,92,0.00,,,0.01,,2013-01-15 12:53:00,
2013-01-15 03:02:00,65.0,63.0,29.88,SW,217,3.0,4.0,92,0.00,,,0.01,,2013-01-15 13:02:00,
2013-01-15 03:12:00,65.0,63.0,29.88,SW,217,3.0,4.0,92,0.00,,,0.01,,2013-01-15 13:12:00,
2013-01-15 03:22:00,65.0,63.0,29.88,SW,229,2.0,3.0,92,0.00,,,0.00,,2013-01-15 13:22:00,
2013-01-15 03:32:00,65.0,63.0,29.88,WSW,237,2.0,4.0,92,0.00,,,0.00,,2013-01-15 13:32:00,
2013-01-15 03:42:00,65.0,63.0,29.88,WSW,237,2.0,4.0,92,0.00,,,0.00,,2013-01-15 13:42:00,
2013-01-15 03:53:00,65.0,63.0,29.88,SW,216,2.0,4.0,92,0.00,,,0.00,,2013-01-15 13:53:00,
2013-01-15 04:02:00,65.0,63.0,29.88,SW,234,2.0,4.0,92,0.00,,,0.00,,2013-01-15 14:02:00,
2013-01-15 04:12:00,65.0,63.0,29.88,SW,234,2.0,4.0,92,0.00,,,0.00,,2013-01-15 14:12:00,
2013-01-15 04:22:00,65.0,63.0,29.88,SW,223,3.0,5.0,92,0.00,,,0.00,,2013-01-15 14:22:00,
2013-01-15 04:32:00,65.0,63.0,29.87,SSW,199,2.0,5.0,92,0.00,,,0.00,,2013-01-15 14:32:00,
2013-01-15 04:42:00,65.0,63.0,29.87,SSW,199,2.0,5.0,92,0.00,,,0.00,,2013-01-15 14:42:00,
2013-01-15 04:53:00,65.0,63.0,29.87,SW,216,2.0,6.0,92,0.00,,,0.00,,2013-01-15 14:53:00,
2013-01-15 05:02:00,65.0,63.0,29.88,SW,232,3.0,5.0,92,0.00,,,0.00,,2013-01-15 15:02:00,
2013-01-15 05:12:00,65.0,63.0,29.88,SW,232,3.0,5.0,92,0.00,,,0.00,,2013-01-15 15:12:00,
2013-01-15 05:23:00,65.0,63.0,29.87,SW,217,3.0,5.0,92,0.00,,,0.00,,2013-01-15 15:23:00,
2013-01-15 05:32:00,65.0,63.0,29.88,SW,225,3.0,5.0,92,0.00,,,0.00,,2013-01-15 15:32:00,
2013-01-15 05:43:00,65.0,63.0,29.88,SW,225,3.0,5.0,92,0.00,,,0.00,,2013-01-15 15:43:00,
2013-01-15 05:53:00,65.0,63.0,29.88,WSW,241,2.0,5.0,92,0.00,,,0.00,,2013-01-15 15:53:00,
2013-01-15 06:02:00,65.0,63.0,29.89,WSW,245,2.0,4.0,92,0.00,,,0.00,,2013-01-15 16:02:00,
2013-01-15 06:12:00,65.0,63.0,29.89,WSW,245,2.0,4.0,92,0.00,,,0.00,,2013-01-15 16:12:00,
2013-01-15 06:22:00,64.0,62.0,29.89,SW,226,2.0,4.0,92,0.00,,,0.00,,2013-01-15 16:22:00,
2013-01-15 06:32:00,64.0,62.0,29.90,WSW,239,3.0,5.0,92,0.00,,,0.00,,2013-01-15 16:32:00,
2013-01-15 06:42:00,64.0,62.0,29.90,WSW,239,3.0,5.0,92,0.00,,,0.00,,2013-01-15 16:42:00,
2013-01-15 06:53:00,64.0,62.0,29.91,SW,227,2.0,3.0,92,0.00,,,0.00,,2013-01-15 16:53:00,
2013-01-15 07:03:00,65.0,63.0,29.91,SW,220,3.0,5.0,93,0.00,,,0.00,,2013-01-15 17:03:00,
2013-01-15 07:12:00,65.0,63.0,29.91,SW,220,3.0,5.0,93,0.00,,,0.00,,2013-01-15 17:12:00,
2013-01-15 07:22:00,65.0,63.0,29.91,SW,232,2.0,4.0,93,0.00,,,0.00,,2013-01-15 17:22:00,
2013-01-15 07:33:00,66.0,64.0,29.92,SW,226,2.0,5.0,93,0.00,,,0.00,,2013-01-15 17:33:00,
2013-01-15 07:42:00,66.0,64.0,29.92,SW,226,2.0,5.0,93,0.00,,,0.00,,2013-01-15 17:42:00,
2013-01-15 07:53:00,67.0,65.0,29.93,SW,220,2.0,3.0,93,0.00,,,0.00,,2013-01-15 17:53:00,
2013-01-15 08:02:00,67.0,65.0,29.92,SW,214,2.0,3.0,93,0.00,,,0.00,,2013-01-15 18:02:00,
2013-01-15 08:12:00,67.0,65.0,29.92,SW,214,2.0,3.0,93,0.00,,,0.00,,2013-01-15 18:12:00,
2013-01-15 08:22:00,68.0,66.0,29.93,WSW,237,0.0,3.0,93,0.00,,,0.00,,2013-01-15 18:22:00,
2013-01-15 08:33:00,71.0,69.0,29.94,West,263,0.0,3.0,94,0.00,,,0.00,,2013-01-15 18:33:00,
2013-01-15 08:42:00,71.0,69.0,29.94,West,263,0.0,3.0,94,0.00,,,0.00,,2013-01-15 18:42:00,
2013-01-15 08:53:00,72.0,69.0,29.94,WNW,293,3.0,7.0,91,0.00,,,0.00,,2013-01-15 18:53:00,
2013-01-15 09:02:00,73.0,70.0,29.94,WNW,297,2.0,7.0,90,0.00,,,0.00,,2013-01-15 19:02:00,
2013-01-15 09:12:00,73.0,70.0,29.94,WNW,297,2.0,7.0,90,0.00,,,0.00,,2013-01-15 19:12:00,
2013-01-15 09:22:00,74.0,71.0,29.94,NW,313,2.0,7.0,89,0.00,,,0.00,,2013-01-15 19:22:00,
2013-01-15 09:32:00,74.0,70.0,29.93,North,4,3.0,8.0,87,0.00,,,0.00,,2013-01-15 19:32:00,
2013-01-15 09:42:00,74.0,70.0,29.93,North,4,3.0,8.0,87,0.00,,,0.00,,2013-01-15 19:42:00,
2013-01-15 09:53:00,75.0,71.0,29.93,North,360,3.0,7.0,87,0.00,,,0.00,,2013-01-15 19:53:00,
2013-01-15 10:02:00,76.0,72.0,29.93,NW,320,3.0,7.0,86,0.00,,,0.00,,2013-01-15 20:02:00,
2013-01-15 10:12:00,76.0,72.0,29.93,NW,320,3.0,7.0,86,0.00,,,0.00,,2013-01-15 20:12:00,
2013-01-15 10:22:00,76.0,71.0,29.93,NE,35,3.0,7.0,85,0.00,,,0.00,,2013-01-15 20:22:00,
2013-01-15 10:33:00,77.0,71.0,29.94,NNE,27,4.0,7.0,83,0.00,,,0.00,,2013-01-15 20:33:00,
2013-01-15 10:43:00,77.0,71.0,29.94,NNE,27,4.0,7.0,83,0.00,,,0.00,,2013-01-15 20:43:00,
2013-01-15 10:53:00,76.0,71.0,29.94,NNE,24,4.0,6.0,84,0.00,,,0.00,,2013-01-15 20:53:00,
2013-01-15 11:02:00,76.0,70.0,29.93,NNE,29,5.0,8.0,83,0.00,,,0.00,,2013-01-15 21:02:00,
2013-01-15 11:12:00,76.0,70.0,29.93,NNE,29,5.0,8.0,83,0.00,,,0.00,,2013-01-15 21:12:00,
2013-01-15 11:22:00,76.0,71.0,29.93,NNE,15,5.0,8.0,84,0.00,,,0.00,,2013-01-15 21:22:00,
2013-01-15 11:33:00,76.0,71.0,29.92,NNW,347,4.0,9.0,85,0.00,,,0.00,,2013-01-15 21:33:00,
2013-01-15 11:42:00,76.0,71.0,29.92,NNW,347,4.0,9.0,85,0.00,,,0.00,,2013-01-15 21:42:00,
2013-01-15 11:53:00,75.0,70.0,29.92,NNW,344,5.0,9.0,85,0.00,,,0.00,,2013-01-15 21:53:00,
2013-01-15 12:02:00,75.0,70.0,29.91,NNW,330,5.0,9.0,85,0.00,,,0.00,,2013-01-15 22:02:00,
2013-01-15 12:12:00,75.0,70.0,29.91,NNW,330,5.0,9.0,85,0.00,,,0.00,,2013-01-15 22:12:00,
2013-01-15 12:22:00,75.0,70.0,29.90,NE,49,6.0,11.0,85,0.00,,,0.00,,2013-01-15 22:22:00,
2013-01-15 12:32:00,75.0,71.0,29.90,NNE,22,4.0,9.0,86,0.00,,,0.00,,2013-01-15 22:32:00,
2013-01-15 12:42:00,75.0,71.0,29.90,NNE,22,4.0,9.0,86,0.00,,,0.00,,2013-01-15 22:42:00,
2013-01-15 12:52:00,75.0,71.0,29.89,WNW,291,5.0,11.0,86,0.00,,,0.00,,2013-01-15 22:52:00,
2013-01-15 13:02:00,74.0,70.0,29.88,NW,310,5.0,9.0,86,0.00,,,0.00,,2013-01-15 23:02:00,
2013-01-15 13:12:00,74.0,70.0,29.88,NW,310,5.0,9.0,86,0.00,,,0.00,,2013-01-15 23:12:00,
2013-01-15 13:22:00,74.0,70.0,29.87,North,351,3.0,8.0,86,0.00,,,0.00,,2013-01-15 23:22:00,
2013-01-15 13:32:00,74.0,70.0,29.87,NW,322,3.0,6.0,87,0.00,,,0.00,,2013-01-15 23:32:00,
2013-01-15 13:42:00,74.0,70.0,29.87,NW,322,3.0,6.0,87,0.00,,,0.00,,2013-01-15 23:42:00,
2013-01-15 13:53:00,74.0,70.0,29.87,North,357,2.0,7.0,87,0.00,,,0.00,,2013-01-15 23:53:00,
2013-01-15 14:02:00,74.0,70.0,29.87,North,356,1.0,5.0,86,0.00,,,0.00,,2013-01-16 00:02:00,
2013-01-15 14:12:00,74.0,70.0,29.87,North,356,1.0,5.0,86,0.00,,,0.00,,2013-01-16 00:12:00,
2013-01-15 14:22:00,75.0,71.0,29.87,NE,48,2.0,5.0,86,0.00,,,0.00,,2013-01-16 00:22:00,
2013-01-15 14:32:00,75.0,71.0,29.87,North,9,3.0,5.0,86,0.00,,,0.00,,2013-01-16 00:32:00,
2013-01-15 14:42:00,75.0,71.0,29.87,North,9,3.0,5.0,86,0.00,,,0.00,,2013-01-16 00:42:00,
2013-01-15 14:53:00,74.0,70.0,29.87,NW,309,2.0,8.0,87,0.00,,,0.00,,2013-01-16 00:53:00,
2013-01-15 15:02:00,74.0,70.0,29.87,NE,43,3.0,5.0,87,0.00,,,0.00,,2013-01-16 01:02:00,
2013-01-15 15:12:00,74.0,70.0,29.87,NE,43,3.0,5.0,87,0.00,,,0.00,,2013-01-16 01:12:00,
2013-01-15 15:22:00,74.0,70.0,29.88,NNE,13,3.0,5.0,87,0.00,,,0.00,,2013-01-16 01:22:00,
2013-01-15 15:32:00,74.0,70.0,29.87,NNW,331,2.0,3.0,87,0.00,,,0.00,,2013-01-16 01:32:00,
2013-01-15 15:42:00,74.0,70.0,29.87,NNW,331,2.0,3.0,87,0.00,,,0.00,,2013-01-16 01:42:00,
2013-01-15 15:53:00,74.0,70.0,29.87,NNE,30,2.0,3.0,88,0.00,,,0.00,,2013-01-16 01:53:00,
2013-01-15 16:02:00,74.0,70.0,29.87,NE,46,1.0,3.0,88,0.00,,,0.00,,2013-01-16 02:02:00,
2013-01-15 16:12:00,74.0,70.0,29.87,NE,46,1.0,3.0,88,0.00,,,0.00,,2013-01-16 02:12:00,
2013-01-15 16:22:00,74.0,70.0,29.88,East,81,1.0,3.0,88,0.00,,,0.00,,2013-01-16 02:22:00,
2013-01-15 16:32:00,74.0,71.0,29.88,NNE,24,1.0,2.0,89,0.00,,,0.00,,2013-01-16 02:32:00,
2013-01-15 16:42:00,74.0,71.0,29.88,NNE,24,1.0,2.0,89,0.00,,,0.00,,2013-01-16 02:42:00,
2013-01-15 16:53:00,74.0,71.0,29.88,WSW,256,0.0,2.0,89,0.00,,,0.00,,2013-01-16 02:53:00,
2013-01-15 17:02:00,73.0,70.0,29.89,West,272,2.0,3.0,89,0.00,,,0.00,,2013-01-16 03:02:00,
2013-01-15 17:11:00,73.0,70.0,29.89,West,272,2.0,3.0,89,0.00,,,0.00,,2013-01-16 03:11:00,
2013-01-15 17:22:00,73.0,70.0,29.89,West,273,1.0,4.0,90,0.00,,,0.00,,2013-01-16 03:22:00,
2013-01-15 17:32:00,72.0,69.0,29.90,West,262,0.0,2.0,91,0.00,,,0.00,,2013-01-16 03:32:00,
2013-01-15 17:42:00,72.0,69.0,29.90,West,262,0.0,2.0,91,0.00,,,0.00,,2013-01-16 03:42:00,
2013-01-15 17:52:00,72.0,69.0,29.90,West,262,1.0,2.0,91,0.01,,,0.01,,2013-01-16 03:52:00,
2013-01-15 18:02:00,72.0,70.0,29.90,West,262,0.0,2.0,92,0.01,,,0.01,,2013-01-16 04:02:00,
2013-01-15 18:11:00,72.0,70.0,29.90,West,262,0.0,2.0,92,0.01,,,0.01,,2013-01-16 04:11:00,
2013-01-15 18:22:00,71.0,69.0,29.91,West,262,0.0,1.0,92,0.01,,,0.01,,2013-01-16 04:22:00,
2013-01-15 18:32:00,71.0,69.0,29.91,West,271,1.0,2.0,92,0.01,,,0.01,,2013-01-16 04:32:00,
2013-01-15 18:42:00,71.0,69.0,29.91,West,271,1.0,2.0,92,0.01,,,0.01,,2013-01-16 04:42:00,
2013-01-15 18:52:00,71.0,69.0,29.91,West,272,0.0,1.0,93,0.01,,,0.02,,2013-01-16 04:52:00,
2013-01-15 19:03:00,71.0,69.0,29.91,West,272,0.0,2.0,93,0.01,,,0.02,,2013-01-16 05:03:00,
2013-01-15 19:12:00,71.0,69.0,29.91,West,272,0.0,2.0,93,0.01,,,0.02,,2013-01-16 05:12:00,
2013-01-15 19:22:00,71.0,69.0,29.92,West,263,0.0,1.0,94,0.01,,,0.02,,2013-01-16 05:22:00,
2013-01-15 19:32:00,71.0,69.0,29.92,West,263,1.0,2.0,94,0.01,,,0.02,,2013-01-16 05:32:00,
2013-01-15 19:42:00,71.0,69.0,29.92,West,263,1.0,2.0,94,0.01,,,0.02,,2013-01-16 05:42:00,
2013-01-15 19:53:00,71.0,69.0,29.92,West,263,0.0,0.0,94,0.00,,,0.02,,2013-01-16 05:53:00,
2013-01-15 20:02:00,71.0,69.0,29.93,West,263,0.0,1.0,94,0.00,,,0.02,,2013-01-16 06:02:00,
2013-01-15 20:11:00,71.0,69.0,29.93,West,263,0.0,1.0,94,0.00,,,0.02,,2013-01-16 06:11:00,
2013-01-15 20:22:00,70.0,68.0,29.93,West,265,1.0,2.0,94,0.00,,,0.02,,2013-01-16 06:22:00,
2013-01-15 20:32:00,70.0,68.0,29.93,West,272,1.0,2.0,94,0.00,,,0.02,,2013-01-16 06:32:00,
2013-01-15 20:42:00,70.0,68.0,29.93,West,272,1.0,2.0,94,0.00,,,0.02,,2013-01-16 06:42:00,
2013-01-15 20:52:00,70.0,68.0,29.93,West,260,0.0,2.0,94,0.00,,,0.02,,2013-01-16 06:52:00,
2013-01-15 21:02:00,70.0,68.0,29.93,West,273,1.0,3.0,95,0.01,,,0.03,,2013-01-16 07:02:00,
2013-01-15 21:11:00,70.0,68.0,29.93,West,273,1.0,3.0,95,0.01,,,0.03,,2013-01-16 07:11:00,
2013-01-15 21:22:00,70.0,68.0,29.93,WNW,298,0.0,2.0,95,0.01,,,0.03,,2013-01-16 07:22:00,
2013-01-15 21:32:00,70.0,68.0,29.93,West,275,1.0,3.0,95,0.01,,,0.03,,2013-01-16 07:32:00,
2013-01-15 21:42:00,70.0,68.0,29.93,West,275,1.0,3.0,95,0.01,,,0.03,,2013-01-16 07:42:00,
2013-01-15 21:52:00,70.0,68.0,29.93,West,275,0.0,2.0,95,0.01,,,0.04,,2013-01-16 07:52:00,
2013-01-15 22:02:00,70.0,68.0,29.93,West,269,0.0,2.0,95,0.02,,,0.05,,2013-01-16 08:02:00,
2013-01-15 22:11:00,70.0,68.0,29.93,West,269,0.0,2.0,95,0.02,,,0.05,,2013-01-16 08:11:00,
2013-01-15 22:22:00,70.0,68.0,29.93,WSW,247,1.0,4.0,95,0.04,,,0.07,,2013-01-16 08:22:00,
2013-01-15 22:32:00,70.0,68.0,29.92,West,263,1.0,3.0,95,0.05,,,0.08,,2013-01-16 08:32:00,
2013-01-15 22:42:00,70.0,68.0,29.92,West,263,1.0,3.0,95,0.05,,,0.08,,2013-01-16 08:42:00,
2013-01-15 22:52:00,69.0,68.0,29.92,WSW,255,1.0,3.0,95,0.04,,,0.08,,2013-01-16 08:52:00,
2013-01-15 23:02:00,69.0,68.0,29.92,WSW,254,0.0,1.0,96,0.05,,,0.10,,2013-01-16 09:02:00,
2013-01-15 23:11:00,69.0,68.0,29.92,WSW,254,0.0,1.0,96,0.05,,,0.10,,2013-01-16 09:11:00,
2013-01-15 23:22:00,69.0,68.0,29.91,WSW,247,0.0,2.0,96,0.03,,,0.10,,2013-01-16 09:22:00,
2013-01-15 23:32:00,69.0,68.0,29.91,WSW,247,0.0,1.0,96,0.03,,,0.11,,2013-01-16 09:32:00,
2013-01-15 23:42:00,69.0,68.0,29.91,WSW,247,0.0,1.0,96,0.03,,,0.11,,2013-01-16 09:42:00,
2013-01-15 23:52:00,69.0,68.0,29.91,WSW,247,0.0,2.0,96,0.03,,,0.11,,2013-01-16 09:52:00,